createdAt,value
2017-12-23T00:00:33.592Z,37.80
2017-12-23T00:03:01.240Z,38.73
2017-12-23T00:05:28.860Z,37.73
2017-12-23T00:07:56.394Z,34.40
2017-12-23T00:10:24.704Z,36.17
2017-12-23T00:12:52.232Z,41.30
2017-12-23T00:15:20.614Z,44.83
2017-12-23T00:17:48.939Z,45.33
2017-12-23T00:20:16.687Z,43.00
2017-12-23T00:22:44.333Z,55.90
2017-12-23T00:25:12.006Z,49.47
2017-12-23T00:27:39.545Z,52.57
2017-12-23T00:30:07.523Z,53.43
2017-12-23T00:32:35.052Z,49.93
2017-12-23T00:35:03.376Z,45.07
2017-12-23T00:37:30.959Z,53.47
2017-12-23T00:39:58.535Z,43.73
2017-12-23T00:42:26.125Z,45.70
2017-12-23T00:44:53.649Z,51.63
2017-12-23T00:47:21.192Z,40.53
2017-12-23T00:49:48.727Z,49.80
2017-12-23T00:52:16.260Z,40.40
2017-12-23T00:54:44.572Z,44.27
2017-12-23T00:57:12.107Z,46.50
2017-12-23T00:59:40.390Z,43.75
2017-12-23T01:02:07.938Z,42.22
2017-12-23T01:04:36.235Z,41.40
2017-12-23T01:07:04.524Z,38.33
2017-12-23T01:09:32.064Z,39.22
2017-12-23T01:12:00.348Z,40.70
2017-12-23T01:14:28.750Z,35.60
2017-12-23T01:16:56.323Z,38.80
2017-12-23T01:19:24.595Z,40.13
2017-12-23T01:21:52.163Z,35.97
2017-12-23T01:24:19.712Z,32.17
2017-12-23T01:26:47.259Z,36.30
2017-12-23T01:29:16.161Z,39.33
2017-12-23T01:31:43.784Z,32.92
2017-12-23T01:34:11.408Z,37.13
2017-12-23T01:36:38.970Z,42.47
2017-12-23T01:39:06.522Z,33.93
2017-12-23T01:41:34.052Z,37.53
2017-12-23T01:44:02.345Z,33.90
2017-12-23T01:46:29.867Z,34.03
2017-12-23T01:48:57.474Z,34.20
2017-12-23T01:51:25.047Z,33.53
2017-12-23T01:53:52.576Z,37.03
2017-12-23T01:56:20.861Z,38.80
2017-12-23T01:58:48.417Z,31.95
2017-12-23T02:01:16.695Z,34.37
2017-12-23T02:03:44.980Z,31.52
2017-12-23T02:06:13.315Z,30.53
2017-12-23T02:08:40.982Z,31.97
2017-12-23T02:11:08.615Z,35.70
2017-12-23T02:13:36.176Z,32.70
2017-12-23T02:16:03.700Z,31.52
2017-12-23T02:18:31.982Z,30.92
2017-12-23T02:21:00.287Z,28.00
2017-12-23T02:23:27.841Z,26.73
2017-12-23T02:25:55.371Z,28.90
2017-12-23T02:28:23.659Z,30.37
2017-12-23T02:30:51.956Z,29.40
2017-12-23T02:33:19.465Z,29.57
2017-12-23T02:35:47.013Z,32.27
2017-12-23T02:38:14.518Z,30.97
2017-12-23T02:40:42.811Z,31.80
2017-12-23T02:43:10.324Z,31.40
2017-12-23T02:45:37.955Z,30.37
2017-12-23T02:48:05.489Z,32.23
2017-12-23T02:50:33.070Z,34.47
2017-12-23T02:53:00.589Z,32.83
2017-12-23T02:55:28.187Z,33.70
2017-12-23T02:57:55.716Z,33.90
2017-12-23T03:00:23.991Z,33.40
2017-12-23T03:02:52.304Z,33.55
2017-12-23T03:05:19.828Z,35.63
2017-12-23T03:07:48.120Z,36.87
2017-12-23T03:10:16.512Z,37.50
2017-12-23T03:12:44.082Z,34.77
2017-12-23T03:15:11.603Z,39.73
2017-12-23T03:17:39.908Z,36.17
2017-12-23T03:20:07.416Z,31.97
2017-12-23T03:22:35.716Z,33.43
2017-12-23T03:25:03.328Z,33.50
2017-12-23T03:27:30.858Z,40.70
2017-12-23T03:29:58.372Z,36.70
2017-12-23T03:32:25.985Z,35.23
2017-12-23T03:34:53.552Z,34.83
2017-12-23T03:37:21.096Z,36.30
2017-12-23T03:39:49.376Z,38.80
2017-12-23T03:42:16.916Z,34.40
2017-12-23T03:44:45.224Z,40.57
2017-12-23T03:47:12.731Z,35.00
2017-12-23T03:49:41.111Z,35.53
2017-12-23T03:52:08.638Z,40.70
2017-12-23T03:54:36.191Z,36.47
2017-12-23T03:57:03.748Z,34.60
2017-12-23T03:59:31.305Z,38.47
2017-12-23T04:01:58.834Z,41.43
2017-12-23T04:04:27.130Z,40.40
2017-12-23T04:06:55.240Z,33.67
2017-12-23T04:09:22.772Z,38.00
2017-12-23T04:11:50.327Z,39.83
2017-12-23T04:14:17.869Z,36.50
2017-12-23T04:16:46.182Z,39.87
2017-12-23T04:19:13.728Z,36.40
2017-12-23T04:21:41.293Z,40.00
2017-12-23T04:24:08.844Z,37.93
2017-12-23T04:26:36.402Z,38.17
2017-12-23T04:29:03.987Z,37.07
2017-12-23T04:31:31.579Z,38.00
2017-12-23T04:33:59.143Z,35.77
2017-12-23T04:36:26.733Z,40.30
2017-12-23T04:38:55.090Z,37.70
2017-12-23T04:41:22.680Z,35.63
2017-12-23T04:43:50.244Z,40.53
2017-12-23T04:46:17.838Z,33.80
2017-12-23T04:48:45.382Z,37.53
2017-12-23T04:51:12.922Z,36.87
2017-12-23T04:53:40.444Z,31.63
2017-12-23T04:56:07.975Z,35.90
2017-12-23T04:58:35.518Z,37.23
2017-12-23T05:01:03.056Z,36.77
2017-12-23T05:03:31.438Z,39.70
2017-12-23T05:05:58.975Z,31.33
2017-12-23T05:08:26.579Z,39.17
2017-12-23T05:10:54.128Z,44.53
2017-12-23T05:13:21.654Z,33.57
2017-12-23T05:15:49.208Z,36.23
2017-12-23T05:18:16.821Z,31.07
2017-12-23T05:20:44.332Z,31.60
2017-12-23T05:23:11.936Z,34.43
2017-12-23T05:25:40.313Z,38.27
2017-12-23T05:28:07.856Z,31.60
2017-12-23T05:30:36.144Z,34.27
2017-12-23T05:33:03.716Z,39.03
2017-12-23T05:35:31.288Z,39.67
2017-12-23T05:37:58.836Z,33.43
2017-12-23T05:40:26.351Z,27.60
2017-12-23T05:42:53.952Z,28.43
2017-12-23T05:45:21.463Z,32.80
2017-12-23T05:47:48.996Z,28.57
2017-12-23T05:50:16.537Z,34.93
2017-12-23T05:52:44.095Z,29.80
2017-12-23T05:55:11.702Z,26.70
2017-12-23T05:57:40.753Z,28.57
2017-12-23T06:00:08.281Z,30.00
2017-12-23T06:02:36.593Z,27.47
2017-12-23T06:05:04.111Z,32.50
2017-12-23T06:07:31.652Z,26.10
2017-12-23T06:09:59.268Z,25.53
2017-12-23T06:12:26.858Z,30.30
2017-12-23T06:14:54.440Z,27.80
2017-12-23T06:17:22.022Z,31.27
2017-12-23T06:19:50.318Z,28.13
2017-12-23T06:22:17.893Z,28.17
2017-12-23T06:24:45.428Z,26.93
2017-12-23T06:27:13.729Z,27.27
2017-12-23T06:29:41.289Z,26.23
2017-12-23T06:32:08.795Z,27.83
2017-12-23T06:34:36.337Z,26.60
2017-12-23T06:37:03.873Z,26.87
2017-12-23T06:39:31.861Z,24.00
2017-12-23T06:41:59.510Z,27.43
2017-12-23T06:44:27.040Z,24.53
2017-12-23T06:46:55.316Z,27.40
2017-12-23T06:49:22.863Z,24.63
2017-12-23T06:51:51.189Z,23.13
2017-12-23T06:54:18.735Z,21.03
2017-12-23T06:56:46.241Z,22.20
2017-12-23T06:59:13.880Z,23.93
2017-12-23T07:01:41.526Z,21.83
2017-12-23T07:04:09.192Z,26.40
2017-12-23T07:06:36.861Z,21.47
2017-12-23T07:09:04.629Z,18.93
2017-12-23T07:11:32.692Z,17.77
2017-12-23T07:14:01.901Z,16.60
2017-12-23T07:16:30.328Z,17.77
2017-12-23T07:18:57.857Z,14.73
2017-12-23T07:21:25.462Z,15.87
2017-12-23T07:23:53.272Z,13.33
2017-12-23T07:26:21.345Z,12.40
2017-12-23T07:28:48.920Z,13.60
2017-12-23T07:31:16.594Z,13.60
2017-12-23T07:33:44.232Z,14.80
2017-12-23T07:36:11.839Z,18.63
2017-12-23T07:38:39.454Z,13.83
2017-12-23T07:41:07.835Z,12.80
2017-12-23T07:43:35.907Z,15.23
2017-12-23T07:46:03.923Z,14.93
2017-12-23T07:48:31.848Z,13.40
2017-12-23T07:50:59.402Z,11.33
2017-12-23T07:53:26.921Z,10.03
2017-12-23T07:55:54.953Z,10.43
2017-12-23T07:58:23.399Z,9.90
2017-12-23T08:00:51.705Z,11.53
2017-12-23T08:03:19.467Z,10.97
2017-12-23T08:05:47.938Z,8.53
2017-12-23T08:08:15.624Z,11.10
2017-12-23T08:10:43.188Z,10.80
2017-12-23T08:13:11.255Z,10.30
2017-12-23T08:15:39.732Z,12.27
2017-12-23T08:18:07.679Z,8.73
2017-12-23T08:20:35.463Z,12.77
2017-12-23T08:23:03.022Z,11.90
2017-12-23T08:25:31.143Z,8.70
2017-12-23T08:27:58.917Z,11.10
2017-12-23T08:30:26.705Z,10.90
2017-12-23T08:32:55.522Z,12.40
2017-12-23T08:35:23.598Z,10.53
2017-12-23T08:37:52.051Z,11.77
2017-12-23T08:40:20.664Z,9.93
2017-12-23T08:42:49.152Z,9.07
2017-12-23T08:45:17.782Z,11.57
2017-12-23T08:47:45.514Z,12.43
2017-12-23T08:50:13.044Z,12.33
2017-12-23T08:52:40.925Z,7.73
2017-12-23T08:55:08.895Z,14.33
2017-12-23T08:57:36.661Z,8.50
2017-12-23T09:00:04.327Z,12.50
2017-12-23T09:02:31.992Z,11.13
2017-12-23T09:05:01.295Z,9.77
2017-12-23T09:07:28.886Z,11.77
2017-12-23T09:09:56.718Z,10.83
2017-12-23T09:12:25.002Z,11.37
2017-12-23T09:14:52.765Z,10.57
2017-12-23T09:17:20.331Z,13.23
2017-12-23T09:19:47.917Z,11.00
2017-12-23T09:22:15.524Z,13.60
2017-12-23T09:24:43.980Z,17.40
2017-12-23T09:27:12.338Z,14.17
2017-12-23T09:29:39.946Z,15.73
2017-12-23T09:32:07.503Z,13.63
2017-12-23T09:34:35.811Z,17.43
2017-12-23T09:37:03.369Z,15.33
2017-12-23T09:39:30.903Z,16.67
2017-12-23T09:45:30.243Z,15.60
2017-12-23T09:47:57.836Z,18.30
2017-12-23T09:50:25.379Z,18.17
2017-12-23T09:52:52.934Z,16.50
2017-12-23T09:55:20.478Z,15.50
2017-12-23T09:57:49.507Z,17.80
2017-12-23T10:00:17.048Z,15.70
2017-12-23T10:02:44.600Z,15.00
2017-12-23T10:05:12.239Z,14.37
2017-12-23T10:07:40.867Z,18.27
2017-12-23T10:10:09.234Z,15.37
2017-12-23T10:12:36.907Z,14.13
2017-12-23T10:15:04.481Z,19.53
2017-12-23T10:17:32.007Z,16.83
2017-12-23T10:19:59.527Z,15.93
2017-12-23T10:22:27.172Z,17.90
2017-12-23T10:24:54.764Z,17.90
2017-12-23T10:27:22.272Z,21.10
2017-12-23T10:29:49.800Z,25.03
2017-12-23T10:32:18.110Z,19.90
2017-12-23T10:34:45.636Z,19.33
2017-12-23T10:37:13.941Z,18.53
2017-12-23T10:39:41.461Z,17.80
2017-12-23T10:42:10.606Z,18.27
2017-12-23T10:44:38.155Z,24.00
2017-12-23T10:47:05.695Z,20.50
2017-12-23T10:49:33.200Z,23.40
2017-12-23T10:52:00.735Z,18.50
2017-12-23T10:54:28.306Z,24.80
2017-12-23T10:56:55.921Z,28.20
2017-12-23T10:59:23.497Z,20.50
2017-12-23T11:01:52.220Z,23.00
2017-12-23T11:04:19.826Z,21.40
2017-12-23T11:06:47.574Z,22.53
2017-12-23T11:09:15.111Z,20.80
2017-12-23T11:11:42.695Z,21.90
2017-12-23T11:14:10.205Z,26.67
2017-12-23T11:16:37.751Z,23.90
2017-12-23T11:19:06.079Z,26.30
2017-12-23T11:21:33.674Z,32.00
2017-12-23T11:24:01.333Z,28.60
2017-12-23T11:26:28.910Z,25.63
2017-12-23T11:28:57.270Z,25.37
2017-12-23T11:31:24.862Z,31.77
2017-12-23T11:33:53.164Z,28.80
2017-12-23T11:36:20.701Z,29.70
2017-12-23T11:38:48.985Z,24.87
2017-12-23T11:41:16.563Z,31.73
2017-12-23T11:43:44.072Z,35.90
2017-12-23T11:46:12.381Z,36.27
2017-12-23T11:48:40.670Z,35.23
2017-12-23T11:51:08.239Z,35.10
2017-12-23T11:53:35.849Z,46.17
2017-12-23T11:56:03.440Z,39.50
2017-12-23T11:58:31.727Z,38.20
2017-12-23T12:00:59.304Z,42.43
2017-12-23T12:03:26.814Z,46.10
2017-12-23T12:05:56.257Z,43.00
2017-12-23T12:08:23.785Z,47.47
2017-12-23T12:10:51.370Z,48.83
2017-12-23T12:13:19.757Z,49.93
2017-12-23T12:15:47.280Z,49.47
2017-12-23T12:18:14.897Z,53.37
2017-12-23T12:20:42.453Z,55.83
2017-12-23T12:23:09.993Z,54.17
2017-12-23T12:25:38.275Z,51.60
2017-12-23T12:28:05.805Z,53.27
2017-12-23T12:30:33.417Z,64.73
2017-12-23T12:33:00.972Z,56.17
2017-12-23T12:35:28.525Z,55.30
2017-12-23T12:37:56.057Z,53.30
2017-12-23T12:40:23.650Z,52.93
2017-12-23T12:42:51.207Z,61.30
2017-12-23T12:45:18.720Z,55.43
2017-12-23T12:47:46.325Z,53.37
2017-12-23T12:50:13.894Z,57.10
2017-12-23T12:52:41.433Z,55.83
2017-12-23T12:55:09.843Z,56.90
2017-12-23T12:57:37.507Z,54.60
2017-12-23T13:00:05.033Z,59.23
2017-12-23T13:02:33.452Z,50.40
2017-12-23T13:05:01.313Z,56.27
2017-12-23T13:07:28.852Z,57.83
2017-12-23T13:09:57.164Z,54.07
2017-12-23T13:12:25.022Z,54.60
2017-12-23T13:14:52.566Z,54.00
2017-12-23T13:17:20.137Z,54.87
2017-12-23T13:19:47.743Z,52.40
2017-12-23T13:22:16.117Z,54.77
2017-12-23T13:24:43.758Z,52.70
2017-12-23T13:27:11.460Z,48.30
2017-12-23T13:29:39.059Z,56.20
2017-12-23T13:32:06.618Z,49.53
2017-12-23T13:34:34.297Z,51.53
2017-12-23T13:37:01.841Z,46.60
2017-12-23T13:39:29.386Z,44.97
2017-12-23T13:41:57.772Z,48.43
2017-12-23T13:44:26.071Z,41.53
2017-12-23T13:46:53.698Z,43.20
2017-12-23T13:49:22.531Z,43.80
2017-12-23T13:51:50.191Z,42.10
2017-12-23T13:54:17.957Z,42.63
2017-12-23T13:56:45.517Z,40.90
2017-12-23T13:59:13.187Z,48.07
2017-12-23T14:01:40.712Z,40.63
2017-12-23T14:04:09.142Z,38.43
2017-12-23T14:06:36.681Z,36.30
2017-12-23T14:09:04.209Z,33.97
2017-12-23T14:11:32.483Z,34.70
2017-12-23T14:14:00.794Z,39.30
2017-12-23T14:16:28.358Z,38.60
2017-12-23T14:18:55.897Z,34.10
2017-12-23T14:21:23.488Z,36.17
2017-12-23T14:23:51.022Z,31.70
2017-12-23T14:26:18.557Z,34.07
2017-12-23T14:28:46.154Z,32.73
2017-12-23T14:31:14.557Z,35.47
2017-12-23T14:33:42.100Z,37.80
2017-12-23T14:36:09.647Z,33.80
2017-12-23T14:38:37.177Z,34.03
2017-12-23T14:41:04.697Z,33.57
2017-12-23T14:43:32.256Z,32.20
2017-12-23T14:45:59.862Z,33.47
2017-12-23T14:48:29.402Z,37.23
2017-12-23T14:50:57.078Z,31.30
2017-12-23T14:53:24.600Z,32.90
2017-12-23T14:55:53.635Z,30.83
2017-12-23T14:58:21.173Z,30.77
2017-12-23T15:00:49.751Z,29.67
2017-12-23T15:03:18.037Z,32.20
2017-12-23T15:05:45.673Z,27.97
2017-12-23T15:08:14.102Z,29.73
2017-12-23T15:10:41.766Z,29.30
2017-12-23T15:13:09.304Z,30.67
2017-12-23T15:15:37.195Z,27.30
2017-12-23T15:18:05.066Z,28.97
2017-12-23T15:20:32.811Z,28.87
2017-12-23T15:23:00.532Z,30.90
2017-12-23T15:25:28.068Z,29.43
2017-12-23T15:27:55.606Z,33.90
2017-12-23T15:30:23.159Z,33.10
2017-12-23T15:32:51.549Z,31.20
2017-12-23T15:35:19.214Z,29.80
2017-12-23T15:37:47.702Z,25.53
2017-12-23T15:40:15.937Z,29.50
2017-12-23T15:42:43.737Z,26.63
2017-12-23T15:45:11.468Z,30.17
2017-12-23T15:47:39.883Z,29.20
2017-12-23T15:50:08.400Z,34.10
2017-12-23T15:52:36.027Z,31.70
2017-12-23T15:55:04.713Z,28.47
2017-12-23T15:57:32.376Z,29.77
2017-12-23T15:59:59.917Z,28.80
2017-12-23T16:02:27.473Z,33.97
2017-12-23T16:04:56.289Z,33.50
2017-12-23T16:07:23.959Z,28.03
2017-12-23T16:09:51.516Z,28.07
2017-12-23T16:12:19.177Z,32.43
2017-12-23T16:14:46.725Z,31.20
2017-12-23T16:17:14.288Z,29.53
2017-12-23T16:19:41.845Z,28.23
2017-12-23T16:22:09.506Z,30.47
2017-12-23T16:24:37.181Z,27.77
2017-12-23T16:27:04.848Z,26.57
2017-12-23T16:29:33.333Z,32.50
2017-12-23T16:32:01.007Z,32.40
2017-12-23T16:34:28.761Z,30.07
2017-12-23T16:36:56.421Z,35.80
2017-12-23T16:39:23.953Z,29.57
2017-12-23T16:41:52.873Z,36.63
2017-12-23T16:44:20.549Z,31.57
2017-12-23T16:46:48.106Z,31.30
2017-12-23T16:49:15.648Z,31.20
2017-12-23T16:51:43.172Z,30.77
2017-12-23T16:54:10.768Z,27.73
2017-12-23T16:56:38.953Z,30.87
2017-12-23T16:59:06.702Z,28.83
2017-12-23T17:01:34.295Z,27.83
2017-12-23T17:04:01.933Z,28.57
2017-12-23T17:06:29.612Z,27.10
2017-12-23T17:08:57.130Z,32.90
2017-12-23T17:11:25.651Z,31.40
2017-12-23T17:13:53.201Z,33.83
2017-12-23T17:16:20.755Z,29.57
2017-12-23T17:18:48.350Z,31.63
2017-12-23T17:21:15.999Z,32.83
2017-12-23T17:23:43.545Z,32.77
2017-12-23T17:26:11.616Z,31.17
2017-12-23T17:28:51.120Z,32.20
2017-12-23T17:31:18.702Z,34.00
2017-12-23T17:33:46.999Z,34.63
2017-12-23T17:36:14.552Z,27.40
2017-12-23T17:38:42.838Z,31.30
2017-12-23T17:41:10.580Z,32.77
2017-12-23T17:43:38.860Z,35.30
2017-12-23T17:46:07.186Z,33.90
2017-12-23T17:48:34.706Z,33.53
2017-12-23T17:51:03.013Z,28.80
2017-12-23T17:53:30.558Z,33.07
2017-12-23T17:55:58.110Z,33.97
2017-12-23T17:58:25.628Z,38.73
2017-12-23T18:00:53.240Z,33.43
2017-12-23T18:03:21.200Z,32.33
2017-12-23T18:05:48.773Z,32.93
2017-12-23T18:08:16.447Z,29.57
2017-12-23T18:10:43.970Z,26.17
2017-12-23T18:13:13.078Z,28.33
2017-12-23T18:15:41.673Z,30.73
2017-12-23T18:18:09.591Z,37.30
2017-12-23T18:20:38.584Z,27.00
2017-12-23T18:23:07.031Z,29.83
2017-12-23T18:25:35.152Z,35.33
2017-12-23T18:28:02.953Z,33.03
2017-12-23T18:30:30.636Z,31.77
2017-12-23T18:32:59.254Z,35.33
2017-12-23T18:35:27.238Z,32.90
2017-12-23T18:37:56.634Z,34.20
2017-12-23T18:40:24.485Z,33.10
2017-12-23T18:42:52.412Z,35.13
2017-12-23T18:45:20.654Z,34.00
2017-12-23T18:47:48.783Z,37.90
2017-12-23T18:50:16.569Z,39.10
2017-12-23T18:52:44.159Z,35.50
2017-12-23T18:55:12.070Z,47.53
2017-12-23T18:57:39.948Z,39.33
2017-12-23T19:00:07.876Z,39.80
2017-12-23T19:02:36.290Z,38.50
2017-12-23T19:05:03.843Z,34.17
2017-12-23T19:07:32.634Z,36.80
2017-12-23T19:10:00.522Z,39.20
2017-12-23T19:12:28.372Z,39.40
2017-12-23T19:14:56.351Z,36.93
2017-12-23T19:17:24.298Z,34.33
2017-12-23T19:19:52.793Z,36.60
2017-12-23T19:22:20.356Z,38.90
2017-12-23T19:24:48.118Z,35.97
2017-12-23T19:27:16.397Z,37.23
2017-12-23T19:29:44.047Z,36.97
2017-12-23T19:32:12.485Z,36.93
2017-12-23T19:34:40.400Z,41.20
2017-12-23T19:37:09.390Z,34.03
2017-12-23T19:39:37.496Z,40.80
2017-12-23T19:42:05.364Z,36.83
2017-12-23T19:44:33.623Z,37.00
2017-12-23T19:47:01.614Z,34.20
2017-12-23T19:49:30.616Z,32.37
2017-12-23T19:51:58.691Z,33.60
2017-12-23T19:54:27.373Z,34.20
2017-12-23T19:56:55.440Z,34.57
2017-12-23T19:59:24.202Z,33.23
2017-12-23T20:01:51.934Z,36.93
2017-12-23T20:04:19.584Z,36.40
2017-12-23T20:06:47.214Z,32.73
2017-12-23T20:09:14.960Z,30.77
2017-12-23T20:11:43.591Z,34.47
2017-12-23T20:14:11.856Z,32.53
2017-12-23T20:16:39.768Z,37.10
2017-12-23T20:19:08.390Z,34.20
2017-12-23T20:21:36.273Z,35.00
2017-12-23T20:24:04.624Z,33.60
2017-12-23T20:26:32.719Z,34.80
2017-12-23T20:29:00.672Z,37.63
2017-12-23T20:31:28.692Z,37.00
2017-12-23T20:33:56.559Z,35.40
2017-12-23T20:36:24.485Z,36.03
2017-12-23T20:38:52.676Z,34.47
2017-12-23T20:41:20.250Z,36.63
2017-12-23T20:43:47.801Z,35.60
2017-12-23T20:46:15.324Z,37.70
2017-12-23T20:48:43.724Z,37.87
2017-12-23T20:51:12.018Z,38.47
2017-12-23T20:53:39.577Z,42.07
2017-12-23T20:56:07.098Z,46.50
2017-12-23T20:58:35.421Z,39.07
2017-12-23T21:01:02.955Z,44.27
2017-12-23T21:03:30.526Z,47.47
2017-12-23T21:05:58.093Z,47.20
2017-12-23T21:08:25.634Z,40.83
2017-12-23T21:10:53.149Z,47.20
2017-12-23T21:13:20.673Z,47.03
2017-12-23T21:15:48.201Z,46.13
2017-12-23T21:18:16.512Z,39.90
2017-12-23T21:20:44.085Z,46.80
2017-12-23T21:23:11.732Z,45.10
2017-12-23T21:25:39.290Z,47.80
2017-12-23T21:28:06.856Z,42.90
2017-12-23T21:30:34.369Z,41.87
2017-12-23T21:33:01.965Z,40.23
2017-12-23T21:35:29.489Z,39.70
2017-12-23T21:37:57.145Z,39.87
2017-12-23T21:40:25.125Z,37.17
2017-12-23T21:42:53.556Z,38.63
2017-12-23T21:45:21.116Z,37.53
2017-12-23T21:47:48.717Z,33.70
2017-12-23T21:50:16.333Z,35.87
2017-12-23T21:52:44.208Z,33.77
2017-12-23T21:55:11.870Z,33.90
2017-12-23T21:57:39.533Z,33.40
2017-12-23T22:00:07.101Z,33.83
2017-12-23T22:02:34.962Z,33.23
2017-12-23T22:05:02.571Z,31.67
2017-12-23T22:07:30.088Z,38.37
2017-12-23T22:09:57.864Z,32.40
2017-12-23T22:12:25.399Z,31.83
2017-12-23T22:14:52.937Z,34.07
2017-12-23T22:17:21.240Z,33.47
2017-12-23T22:19:48.802Z,29.30
2017-12-23T22:22:16.335Z,39.53
2017-12-23T22:24:44.641Z,30.00
2017-12-23T22:27:12.245Z,30.47
2017-12-23T22:29:39.821Z,34.33
2017-12-23T22:32:07.427Z,36.07
2017-12-23T22:34:35.109Z,31.40
2017-12-23T22:37:02.652Z,31.53
2017-12-23T22:39:30.340Z,31.07
2017-12-23T22:41:57.968Z,30.40
2017-12-23T22:44:25.651Z,27.97
2017-12-23T22:46:53.441Z,30.03
2017-12-23T22:49:20.962Z,31.97
2017-12-23T22:51:48.530Z,32.77
2017-12-23T22:54:16.074Z,32.87
2017-12-23T22:56:43.656Z,32.73
2017-12-23T22:59:11.166Z,36.50
2017-12-23T23:01:38.718Z,36.83
2017-12-23T23:04:06.327Z,37.10
2017-12-23T23:06:33.893Z,37.03
2017-12-23T23:09:01.428Z,35.97
2017-12-23T23:11:29.829Z,34.83
2017-12-23T23:13:57.389Z,33.70
2017-12-23T23:16:24.954Z,40.83
2017-12-23T23:18:52.512Z,39.53
2017-12-23T23:21:20.089Z,47.80
2017-12-23T23:23:47.638Z,42.10
2017-12-23T23:26:15.153Z,37.97
2017-12-23T23:28:42.760Z,38.33
2017-12-23T23:31:10.309Z,47.60
2017-12-23T23:33:37.836Z,40.63
2017-12-23T23:36:05.354Z,39.70
2017-12-23T23:38:33.006Z,43.10
2017-12-23T23:41:00.577Z,41.33
2017-12-23T23:43:28.116Z,38.23
2017-12-23T23:45:55.650Z,39.57
2017-12-23T23:48:23.961Z,35.43
2017-12-23T23:50:51.480Z,35.33
2017-12-23T23:53:19.085Z,36.17
2017-12-23T23:55:46.640Z,36.10
2017-12-23T23:58:14.176Z,32.47
